createdAt,value
2023-01-11T00:01:40.166Z,84.46
2023-01-11T00:04:07.106Z,84.97
2023-01-11T00:06:34.055Z,84.53
2023-01-11T00:09:01.007Z,84.73
2023-01-11T00:11:28.107Z,85.15
2023-01-11T00:13:55.013Z,85.49
2023-01-11T00:16:21.972Z,85.53
2023-01-11T00:18:48.921Z,85.37
2023-01-11T00:21:15.916Z,85.52
2023-01-11T00:23:42.848Z,85.05
2023-01-11T00:26:13.041Z,85.30
2023-01-11T00:28:40.102Z,85.20
2023-01-11T00:31:07.124Z,85.30
2023-01-11T00:33:34.437Z,85.68
2023-01-11T00:36:01.543Z,85.30
2023-01-11T00:38:43.628Z,85.53
2023-01-11T00:41:33.183Z,85.68
2023-01-11T00:44:19.215Z,85.33
2023-01-11T00:47:04.525Z,85.29
2023-01-11T00:49:31.585Z,85.70
2023-01-11T00:51:58.552Z,85.86
2023-01-11T00:54:25.544Z,85.91
2023-01-11T00:56:52.521Z,85.55
2023-01-11T00:59:20.093Z,85.69
2023-01-11T01:01:47.008Z,85.71
2023-01-11T01:04:14.083Z,85.50
2023-01-11T01:06:41.032Z,85.75
2023-01-11T01:09:08.253Z,85.77
2023-01-11T01:11:35.163Z,85.63
2023-01-11T01:14:20.491Z,85.27
2023-01-11T01:16:47.969Z,85.76
2023-01-11T01:19:15.627Z,85.39
2023-01-11T01:21:42.592Z,85.48
2023-01-11T01:24:09.784Z,85.55
2023-01-11T01:26:36.774Z,85.69
2023-01-11T01:29:04.310Z,85.48
2023-01-11T01:31:31.406Z,85.46
2023-01-11T01:33:58.432Z,85.02
2023-01-11T01:36:25.455Z,85.22
2023-01-11T01:38:52.354Z,85.58
2023-01-11T01:41:19.530Z,85.38
2023-01-11T01:43:59.620Z,85.61
2023-01-11T01:46:33.356Z,85.73
2023-01-11T01:49:12.087Z,85.98
2023-01-11T01:51:49.015Z,85.62
2023-01-11T01:54:24.908Z,85.83
2023-01-11T01:57:01.838Z,85.68
2023-01-11T01:59:31.055Z,86.13
2023-01-11T02:01:58.333Z,85.70
2023-01-11T02:04:41.994Z,85.87
2023-01-11T02:07:19.371Z,86.05
2023-01-11T02:10:12.419Z,85.88
2023-01-11T02:12:59.356Z,86.01
2023-01-11T02:15:26.998Z,85.91
2023-01-11T02:17:53.896Z,85.90
2023-01-11T02:20:50.638Z,85.80
2023-01-11T02:24:18.418Z,85.67
2023-01-11T02:27:29.872Z,85.31
2023-01-11T02:30:26.431Z,85.35
2023-01-11T02:33:18.520Z,86.06
2023-01-11T02:36:15.148Z,85.84
2023-01-11T02:38:57.655Z,86.19
2023-01-11T02:42:09.230Z,86.25
2023-01-11T02:45:03.743Z,86.61
2023-01-11T02:47:59.955Z,86.82
2023-01-11T02:50:38.613Z,86.73
2023-01-11T02:53:23.636Z,86.30
2023-01-11T02:55:57.121Z,86.58
2023-01-11T02:58:28.154Z,86.63
2023-01-11T03:00:55.872Z,86.25
2023-01-11T03:03:27.673Z,86.50
2023-01-11T03:06:02.024Z,86.04
2023-01-11T03:09:14.331Z,85.84
2023-01-11T03:12:25.543Z,85.98
2023-01-11T03:15:24.396Z,86.10
2023-01-11T03:18:21.050Z,86.62
2023-01-11T03:20:58.643Z,87.01
2023-01-11T03:23:54.322Z,86.92
2023-01-11T03:26:52.641Z,86.95
2023-01-11T03:30:13.254Z,86.58
2023-01-11T03:32:48.583Z,86.89
2023-01-11T03:35:45.160Z,87.01
2023-01-11T03:38:44.076Z,86.73
2023-01-11T03:41:20.302Z,86.56
2023-01-11T03:43:51.588Z,87.17
2023-01-11T03:46:29.520Z,87.12
2023-01-11T03:49:04.226Z,86.75
2023-01-11T03:51:38.565Z,87.30
2023-01-11T03:54:08.809Z,87.35
2023-01-11T03:57:05.894Z,87.29
2023-01-11T03:59:34.508Z,87.52
2023-01-11T04:02:02.281Z,87.80
2023-01-11T04:04:29.706Z,87.92
2023-01-11T04:06:56.788Z,87.71
2023-01-11T04:09:23.760Z,88.45
2023-01-11T04:11:50.714Z,87.62
2023-01-11T04:14:17.618Z,88.65
2023-01-11T04:16:44.533Z,88.71
2023-01-11T04:19:11.452Z,88.44
2023-01-11T04:21:38.367Z,87.92
2023-01-11T04:24:05.663Z,87.75
2023-01-11T04:26:33.089Z,88.76
2023-01-11T04:29:00.055Z,88.24
2023-01-11T04:31:27.115Z,87.63
2023-01-11T04:33:54.056Z,87.89
2023-01-11T04:36:21.046Z,87.84
2023-01-11T04:38:47.997Z,87.86
2023-01-11T04:41:33.675Z,87.80
2023-01-11T04:44:00.587Z,87.88
2023-01-11T04:46:27.519Z,87.75
2023-01-11T04:48:56.244Z,88.08
2023-01-11T04:51:23.156Z,87.92
2023-01-11T04:53:50.116Z,87.66
2023-01-11T04:56:17.614Z,88.24
2023-01-11T04:58:45.074Z,88.23
2023-01-11T05:01:18.395Z,87.86
2023-01-11T05:03:46.280Z,87.72
2023-01-11T05:06:14.975Z,88.02
2023-01-11T05:08:46.420Z,88.22
2023-01-11T05:11:13.372Z,88.56
2023-01-11T05:13:43.492Z,88.18
2023-01-11T05:16:12.350Z,88.40
2023-01-11T05:18:45.111Z,88.37
2023-01-11T05:21:14.425Z,88.38
2023-01-11T05:23:42.427Z,88.58
2023-01-11T05:26:23.212Z,88.34
2023-01-11T05:28:51.989Z,88.12
2023-01-11T05:31:19.264Z,88.95
2023-01-11T05:33:46.675Z,88.73
2023-01-11T05:36:17.511Z,88.65
2023-01-11T05:38:50.079Z,88.45
2023-01-11T05:41:19.204Z,88.20
2023-01-11T05:44:07.055Z,88.59
2023-01-11T05:46:36.782Z,88.84
2023-01-11T05:49:05.325Z,88.51
2023-01-11T05:51:33.499Z,88.72
2023-01-11T05:54:03.152Z,88.31
2023-01-11T05:56:30.214Z,88.59
2023-01-11T05:58:57.254Z,88.64
2023-01-11T06:01:25.233Z,88.96
2023-01-11T06:03:52.559Z,88.88
2023-01-11T06:06:20.565Z,88.53
2023-01-11T06:08:47.655Z,88.39
2023-01-11T06:11:15.246Z,88.47
2023-01-11T06:13:42.476Z,88.73
2023-01-11T06:16:14.052Z,88.64
2023-01-11T06:18:44.140Z,88.66
2023-01-11T06:21:12.982Z,88.67
2023-01-11T06:23:44.119Z,88.17
2023-01-11T06:26:17.055Z,88.67
2023-01-11T06:28:44.492Z,88.57
2023-01-11T06:31:12.202Z,88.58
2023-01-11T06:33:39.710Z,88.77
2023-01-11T06:36:10.874Z,88.89
2023-01-11T06:38:38.537Z,88.98
2023-01-11T06:41:08.348Z,89.08
2023-01-11T06:43:37.936Z,88.39
2023-01-11T06:46:05.589Z,88.56
2023-01-11T06:48:32.613Z,88.56
2023-01-11T06:50:59.989Z,88.68
2023-01-11T06:53:29.079Z,89.47
2023-01-11T06:55:58.806Z,89.06
2023-01-11T06:58:26.670Z,88.88
2023-01-11T07:00:56.913Z,88.87
2023-01-11T07:03:25.798Z,89.11
2023-01-11T07:05:54.166Z,88.74
2023-01-11T07:08:21.236Z,88.80
2023-01-11T07:10:48.357Z,88.87
2023-01-11T07:13:17.189Z,88.94
2023-01-11T07:15:46.431Z,88.71
2023-01-11T07:18:13.379Z,88.81
2023-01-11T07:20:40.940Z,89.35
2023-01-11T07:23:08.060Z,88.78
2023-01-11T07:25:35.278Z,88.96
2023-01-11T07:28:06.141Z,89.13
2023-01-11T07:30:51.896Z,89.25
2023-01-11T07:33:23.444Z,89.38
2023-01-11T07:35:50.401Z,89.12
2023-01-11T07:38:17.395Z,89.31
2023-01-11T07:40:44.343Z,89.29
2023-01-11T07:43:18.835Z,88.81
2023-01-11T07:45:49.283Z,89.01
2023-01-11T07:48:24.975Z,88.85
2023-01-11T07:50:53.093Z,89.16
2023-01-11T07:53:20.302Z,88.93
2023-01-11T07:55:47.487Z,89.30
2023-01-11T07:58:15.284Z,89.29
2023-01-11T08:00:42.384Z,89.16
2023-01-11T08:03:09.837Z,89.16
2023-01-11T08:05:37.107Z,88.85
2023-01-11T08:08:05.193Z,88.81
2023-01-11T08:10:32.261Z,88.59
2023-01-11T08:13:18.227Z,88.53
2023-01-11T08:15:45.323Z,88.79
2023-01-11T08:18:12.707Z,88.86
2023-01-11T08:20:40.264Z,89.12
2023-01-11T08:23:09.975Z,89.00
2023-01-11T08:25:37.880Z,88.99
2023-01-11T08:28:06.949Z,89.15
2023-01-11T08:30:35.162Z,88.99
2023-01-11T08:33:03.009Z,89.10
2023-01-11T08:35:31.728Z,89.16
2023-01-11T08:37:58.744Z,89.35
2023-01-11T08:40:25.778Z,89.49
2023-01-11T08:42:59.024Z,89.05
2023-01-11T08:45:26.711Z,89.40
2023-01-11T08:47:54.560Z,89.14
2023-01-11T08:50:22.641Z,88.95
2023-01-11T08:52:51.550Z,88.93
2023-01-11T08:55:19.724Z,88.96
2023-01-11T08:57:46.854Z,89.73
2023-01-11T09:00:14.771Z,89.73
2023-01-11T09:02:41.847Z,90.00
2023-01-11T09:05:09.434Z,89.62
2023-01-11T09:07:36.352Z,90.04
2023-01-11T09:10:03.942Z,89.49
2023-01-11T09:12:32.457Z,89.96
2023-01-11T09:14:59.658Z,90.24
2023-01-11T09:17:26.766Z,90.05
2023-01-11T09:19:53.674Z,90.36
2023-01-11T09:22:20.603Z,90.21
2023-01-11T09:24:47.567Z,90.38
2023-01-11T09:27:14.649Z,90.11
2023-01-11T09:29:41.604Z,89.65
2023-01-11T09:32:08.507Z,90.12
2023-01-11T09:34:35.859Z,90.50
2023-01-11T09:37:06.613Z,90.30
2023-01-11T09:39:34.863Z,90.31
2023-01-11T09:42:36.617Z,90.61
2023-01-11T09:45:23.306Z,90.11
2023-01-11T09:48:11.571Z,90.22
2023-01-11T09:50:45.447Z,90.51
2023-01-11T09:53:28.075Z,90.60
2023-01-11T09:55:58.078Z,90.87
2023-01-11T09:59:06.523Z,91.24
2023-01-11T10:01:49.405Z,91.59
2023-01-11T10:04:38.930Z,91.95
2023-01-11T10:07:42.895Z,91.92
2023-01-11T10:18:32.990Z,91.75
2023-01-11T10:18:40.603Z,92.77
2023-01-11T10:20:12.792Z,92.80
2023-01-11T10:22:46.937Z,92.41
2023-01-11T10:25:26.475Z,91.90
2023-01-11T10:28:05.881Z,91.38
2023-01-11T10:30:59.084Z,91.70
2023-01-11T10:34:12.167Z,91.79
2023-01-11T10:37:09.399Z,92.07
2023-01-11T10:40:06.664Z,91.79
2023-01-11T10:43:17.861Z,91.32
2023-01-11T10:46:12.392Z,91.19
2023-01-11T10:48:43.375Z,91.64
2023-01-11T10:51:27.141Z,91.89
2023-01-11T10:54:16.068Z,92.73
2023-01-11T10:57:39.806Z,92.89
2023-01-11T11:00:51.414Z,93.44
2023-01-11T11:03:37.233Z,92.86
2023-01-11T11:06:41.607Z,92.46
2023-01-11T11:09:51.037Z,92.34
2023-01-11T11:12:36.052Z,92.55
2023-01-11T11:15:13.968Z,93.09
2023-01-11T11:17:46.848Z,92.98
2023-01-11T11:20:24.638Z,92.91
2023-01-11T11:22:54.002Z,93.16
2023-01-11T11:25:42.601Z,93.10
2023-01-11T11:28:33.776Z,93.35
2023-01-11T11:31:05.579Z,93.33
2023-01-11T11:33:37.592Z,93.32
2023-01-11T11:36:09.529Z,94.04
2023-01-11T11:38:40.666Z,93.06
2023-01-11T11:41:13.272Z,93.85
2023-01-11T11:43:43.984Z,94.10
2023-01-11T11:46:18.760Z,94.17
2023-01-11T11:49:13.313Z,93.93
2023-01-11T11:51:42.583Z,94.49
2023-01-11T11:54:27.064Z,94.33
2023-01-11T11:56:56.013Z,94.88
2023-01-11T11:59:28.409Z,94.80
2023-01-11T12:02:03.398Z,94.83
2023-01-11T12:04:48.646Z,94.50
2023-01-11T12:07:22.858Z,94.64
2023-01-11T12:10:18.095Z,95.10
2023-01-11T12:13:02.490Z,95.50
2023-01-11T12:15:34.737Z,95.66
2023-01-11T12:18:33.210Z,95.81
2023-01-11T12:21:32.962Z,95.48
2023-01-11T12:24:17.204Z,95.44
2023-01-11T12:26:57.020Z,95.79
2023-01-11T12:30:05.025Z,95.55
2023-01-11T12:32:40.653Z,95.70
2023-01-11T12:35:37.383Z,95.80
2023-01-11T12:38:30.034Z,95.10
2023-01-11T12:41:19.271Z,94.86
2023-01-11T12:44:02.209Z,94.89
2023-01-11T12:47:21.945Z,94.37
2023-01-11T12:50:27.922Z,94.80
2023-01-11T12:53:15.707Z,94.07
2023-01-11T12:56:20.716Z,94.89
2023-01-11T12:59:07.268Z,94.75
2023-01-11T13:01:50.059Z,94.56
2023-01-11T13:04:52.315Z,94.65
2023-01-11T13:07:51.271Z,94.52
2023-01-11T13:10:49.970Z,94.94
2023-01-11T13:13:48.811Z,95.39
2023-01-11T13:16:28.608Z,95.10
2023-01-11T13:19:13.832Z,94.48
2023-01-11T13:21:53.209Z,94.51
2023-01-11T13:24:32.789Z,94.61
2023-01-11T13:27:07.305Z,94.58
2023-01-11T13:29:39.207Z,94.38
2023-01-11T13:32:14.244Z,94.93
2023-01-11T13:35:13.941Z,94.84
2023-01-11T13:38:00.685Z,95.01
2023-01-11T13:40:35.697Z,95.13
2023-01-11T13:43:22.446Z,94.78
2023-01-11T13:46:03.524Z,95.01
2023-01-11T13:48:42.937Z,94.98
2023-01-11T13:51:22.661Z,95.13
2023-01-11T13:54:01.917Z,94.93
2023-01-11T13:56:38.252Z,95.24
2023-01-11T13:59:40.774Z,95.34
2023-01-11T14:02:42.061Z,95.24
2023-01-11T14:05:19.806Z,95.96
2023-01-11T14:08:36.433Z,96.36
2023-01-11T14:11:20.391Z,95.85
2023-01-11T14:14:17.876Z,96.43
2023-01-11T14:16:53.919Z,96.09
2023-01-11T14:19:52.982Z,95.47
2023-01-11T14:22:57.480Z,96.38
2023-01-11T14:25:49.213Z,96.29
2023-01-11T14:29:08.871Z,95.64
2023-01-11T14:31:35.756Z,95.94
2023-01-11T14:34:20.316Z,96.00
2023-01-11T14:37:26.276Z,96.18
2023-01-11T14:40:05.241Z,95.93
2023-01-11T14:42:49.896Z,95.42
2023-01-11T14:46:17.731Z,95.80
2023-01-11T14:49:13.724Z,95.00
2023-01-11T14:51:43.512Z,95.48
2023-01-11T14:54:16.527Z,95.26
2023-01-11T14:56:43.354Z,95.82
2023-01-11T14:59:27.233Z,95.46
2023-01-11T15:02:03.041Z,95.89
2023-01-11T15:04:54.648Z,94.87
2023-01-11T15:07:29.381Z,94.96
2023-01-11T15:09:59.371Z,94.81
2023-01-11T15:12:40.278Z,95.48
2023-01-11T15:15:13.219Z,94.86
2023-01-11T15:17:59.557Z,95.07
2023-01-11T15:20:28.277Z,94.75
2023-01-11T15:23:05.587Z,94.70
2023-01-11T15:25:35.071Z,95.00
2023-01-11T15:28:38.482Z,94.29
2023-01-11T15:31:06.157Z,95.06
2023-01-11T15:33:48.700Z,94.44
2023-01-11T15:36:15.662Z,94.62
2023-01-11T15:39:03.220Z,94.63
2023-01-11T15:42:06.491Z,94.10
2023-01-11T15:45:23.469Z,93.98
2023-01-11T15:48:11.870Z,93.99
2023-01-11T15:50:57.023Z,93.84
2023-01-11T15:54:01.210Z,93.82
2023-01-11T15:57:11.633Z,93.72
2023-01-11T16:00:04.230Z,93.78
2023-01-11T16:02:59.013Z,94.15
2023-01-11T16:05:30.799Z,93.66
2023-01-11T16:08:21.377Z,93.90
2023-01-11T16:11:02.820Z,93.79
2023-01-11T16:14:00.821Z,93.29
2023-01-11T16:16:32.234Z,93.67
2023-01-11T16:19:21.552Z,93.30
2023-01-11T16:21:52.253Z,93.58
2023-01-11T16:24:23.897Z,94.08
2023-01-11T16:26:58.698Z,93.58
2023-01-11T16:29:37.066Z,93.45
2023-01-11T16:32:07.017Z,93.59
2023-01-11T16:34:50.088Z,93.67
2023-01-11T16:37:44.604Z,93.16
2023-01-11T16:40:14.444Z,93.47
2023-01-11T16:43:05.533Z,92.83
2023-01-11T16:45:44.539Z,92.80
2023-01-11T16:48:23.344Z,93.20
2023-01-11T16:51:05.580Z,92.95
2023-01-11T16:53:39.287Z,93.48
2023-01-11T16:56:24.575Z,92.92
2023-01-11T16:59:13.386Z,93.06
2023-01-11T17:02:00.099Z,93.08
2023-01-11T17:04:33.861Z,92.85
2023-01-11T17:07:27.519Z,92.53
2023-01-11T17:10:15.008Z,92.42
2023-01-11T17:12:46.853Z,93.05
2023-01-11T17:16:02.352Z,92.37
2023-01-11T17:18:29.824Z,92.89
2023-01-11T17:20:56.924Z,92.79
2023-01-11T17:23:23.995Z,93.07
2023-01-11T17:25:57.249Z,92.71
2023-01-11T17:28:25.937Z,92.46
2023-01-11T17:30:54.256Z,92.65
2023-01-11T17:33:33.495Z,92.43
2023-01-11T17:36:01.589Z,92.74
2023-01-11T17:38:30.141Z,93.02
2023-01-11T17:40:58.664Z,93.40
2023-01-11T17:43:47.105Z,93.27
2023-01-11T17:46:26.311Z,92.76
2023-01-11T17:48:59.708Z,92.70
2023-01-11T17:51:40.784Z,92.52
2023-01-11T17:54:20.533Z,92.97
2023-01-11T17:56:58.103Z,92.91
2023-01-11T17:59:28.890Z,92.82
2023-01-11T18:02:04.358Z,92.84
2023-01-11T18:04:32.071Z,92.72
2023-01-11T18:07:18.332Z,92.28
2023-01-11T18:09:57.244Z,92.84
2023-01-11T18:12:31.748Z,92.68
2023-01-11T18:15:02.034Z,92.94
2023-01-11T18:17:42.125Z,93.15
2023-01-11T18:20:15.272Z,92.27
2023-01-11T18:23:23.180Z,92.09
2023-01-11T18:25:50.321Z,92.25
2023-01-11T18:28:28.207Z,92.42
2023-01-11T18:31:00.045Z,92.53
2023-01-11T18:33:32.130Z,92.43
2023-01-11T18:36:03.694Z,92.50
2023-01-11T18:38:36.008Z,92.54
2023-01-11T18:41:27.756Z,92.38
2023-01-11T18:43:55.416Z,92.08
2023-01-11T18:46:22.497Z,92.05
2023-01-11T18:48:49.563Z,92.02
2023-01-11T18:51:45.151Z,92.12
2023-01-11T18:54:17.254Z,92.26
2023-01-11T18:56:44.379Z,91.94
2023-01-11T18:59:11.375Z,91.88
2023-01-11T19:01:52.661Z,91.94
2023-01-11T19:04:25.672Z,92.00
2023-01-11T19:06:52.641Z,92.32
2023-01-11T19:09:19.581Z,92.18
2023-01-11T19:11:46.665Z,92.04
2023-01-11T19:14:13.814Z,92.20
2023-01-11T19:16:40.745Z,92.18
2023-01-11T19:19:07.680Z,92.02
2023-01-11T19:21:34.703Z,92.05
2023-01-11T19:24:02.094Z,91.64
2023-01-11T19:26:29.291Z,91.99
2023-01-11T19:28:56.349Z,91.72
2023-01-11T19:31:23.378Z,91.65
2023-01-11T19:33:50.326Z,91.98
2023-01-11T19:36:17.293Z,91.73
2023-01-11T19:38:44.271Z,92.34
2023-01-11T19:41:12.090Z,91.92
2023-01-11T19:43:44.785Z,92.02
2023-01-11T19:46:22.472Z,92.37
2023-01-11T19:48:57.397Z,92.09
2023-01-11T19:51:24.307Z,92.20
2023-01-11T19:53:51.586Z,92.54
2023-01-11T19:56:18.566Z,92.55
2023-01-11T19:58:45.527Z,92.48
2023-01-11T20:01:13.264Z,92.39
2023-01-11T20:03:41.529Z,92.58
2023-01-11T20:06:09.160Z,92.26
2023-01-11T20:08:38.415Z,92.61
2023-01-11T20:11:14.100Z,92.41
2023-01-11T20:13:42.195Z,92.68
2023-01-11T20:16:13.935Z,92.92
2023-01-11T20:18:42.699Z,92.57
2023-01-11T20:21:10.877Z,92.53
2023-01-11T20:23:38.824Z,92.91
2023-01-11T20:26:14.808Z,92.50
2023-01-11T20:28:54.377Z,92.79
2023-01-11T20:31:27.246Z,92.98
2023-01-11T20:33:55.564Z,92.58
2023-01-11T20:36:23.598Z,92.30
2023-01-11T20:38:51.180Z,92.33
2023-01-11T20:41:40.182Z,92.17
2023-01-11T20:44:08.067Z,92.79
2023-01-11T20:46:37.119Z,92.31
2023-01-11T20:49:06.068Z,92.07
2023-01-11T20:51:33.224Z,92.34
2023-01-11T20:54:00.168Z,92.59
2023-01-11T20:56:27.490Z,92.27
2023-01-11T20:58:54.504Z,93.01
2023-01-11T21:01:28.014Z,92.62
2023-01-11T21:03:59.956Z,92.52
2023-01-11T21:06:27.532Z,92.62
2023-01-11T21:09:00.338Z,92.87
2023-01-11T21:11:28.757Z,92.75
2023-01-11T21:16:24.545Z,93.04
2023-01-11T21:19:01.159Z,92.23
2023-01-11T21:21:30.899Z,92.35
2023-01-11T21:24:01.656Z,92.48
2023-01-11T21:26:30.280Z,93.03
2023-01-11T21:29:04.377Z,92.77
2023-01-11T21:31:34.796Z,92.78
2023-01-11T21:34:02.806Z,92.86
2023-01-11T21:36:31.398Z,92.96
2023-01-11T21:38:59.615Z,92.90
2023-01-11T21:41:48.878Z,92.38
2023-01-11T21:44:17.273Z,92.44
2023-01-11T21:46:44.875Z,92.73
2023-01-11T21:49:12.803Z,92.45
2023-01-11T21:51:40.349Z,92.23
2023-01-11T21:54:13.258Z,92.30
2023-01-11T21:56:41.906Z,92.58
2023-01-11T21:59:09.741Z,92.08
2023-01-11T22:01:39.087Z,92.26
2023-01-11T22:04:08.109Z,92.69
2023-01-11T22:06:37.095Z,92.50
2023-01-11T22:09:05.232Z,92.17
2023-01-11T22:11:33.200Z,92.59
2023-01-11T22:14:02.426Z,92.91
2023-01-11T22:16:31.499Z,92.24
2023-01-11T22:19:00.029Z,92.39
2023-01-11T22:21:27.612Z,92.13
2023-01-11T22:23:57.979Z,92.61
2023-01-11T22:26:27.591Z,92.23
2023-01-11T22:29:14.543Z,92.26
2023-01-11T22:31:51.546Z,91.92
2023-01-11T22:34:19.079Z,92.30
2023-01-11T22:36:46.792Z,92.29
2023-01-11T22:39:15.633Z,91.92
2023-01-11T22:41:45.372Z,92.31
2023-01-11T22:44:15.460Z,91.88
2023-01-11T22:46:43.466Z,91.75
2023-01-11T22:49:11.606Z,91.76
2023-01-11T22:51:43.619Z,92.09
2023-01-11T22:54:11.625Z,92.32
2023-01-11T22:56:38.685Z,92.17
2023-01-11T22:59:05.648Z,92.21
2023-01-11T23:01:38.749Z,92.39
2023-01-11T23:04:07.610Z,92.45
2023-01-11T23:06:38.688Z,92.36
2023-01-11T23:09:07.725Z,92.45
2023-01-11T23:11:57.008Z,92.30
2023-01-11T23:14:30.859Z,92.52
2023-01-11T23:17:08.032Z,92.59
2023-01-11T23:19:37.805Z,92.28
2023-01-11T23:22:05.532Z,92.66
2023-01-11T23:24:32.901Z,91.95
2023-01-11T23:26:59.995Z,92.01
2023-01-11T23:29:27.106Z,92.36
2023-01-11T23:31:54.134Z,92.48
2023-01-11T23:34:21.451Z,92.04
2023-01-11T23:36:48.425Z,91.94
2023-01-11T23:39:18.560Z,92.17
2023-01-11T23:42:04.392Z,92.19
2023-01-11T23:44:31.456Z,92.22
2023-01-11T23:47:16.956Z,92.65
2023-01-11T23:49:44.035Z,92.67
2023-01-11T23:52:11.528Z,92.32
2023-01-11T23:54:38.538Z,92.52
2023-01-11T23:57:05.619Z,92.43
2023-01-11T23:59:32.974Z,92.50
